Manzanares el Real, Spain
Current Conditions -  °F | °C
As of 1:00 PM on Thursday 18 Dec 2014 (Local Time) from LEMD Reporting Station
Clear Clear  
Wind Chill: 50°   Ceiling: Unl
Heat Index: 50°   Visibility: 6mi
Dew Point: 41°   Wind: 1mph
Humidity: 71%   Direction: NA
Pressure: 30.36"   Gusts: NA
Location:  40.73°N, 3.86°W
Report Text: LEMD 181200Z VRB01KT CAVOK 10/05 Q1028 NOSIG
Loading
Personal Weather Stations






























Interactive Weather Map New forecast layout! Learn more

10-Day Weather Forecast

Advertisements
Track Severe Weather on mobile